sensor_id;sensor_type;location;lat;lon;timestamp;pressure;altitude;pressure_sealevel;temperature;humidity
84356;BME280;74539;43.518;1.504;2024-02-26T00:01:26;98101.06;;;16.22;41.67
84356;BME280;74539;43.518;1.504;2024-02-26T00:03:52;98104.19;;;16.24;43.19
84356;BME280;74539;43.518;1.504;2024-02-26T00:06:18;98098.50;;;16.26;43.15
84356;BME280;74539;43.518;1.504;2024-02-26T00:08:44;98085.75;;;16.14;42.91
84356;BME280;74539;43.518;1.504;2024-02-26T00:11:09;98092.19;;;16.22;42.69
84356;BME280;74539;43.518;1.504;2024-02-26T00:13:36;98094.53;;;16.23;42.59
84356;BME280;74539;43.518;1.504;2024-02-26T00:16:03;98086.34;;;16.20;43.05
84356;BME280;74539;43.518;1.504;2024-02-26T00:18:29;98089.81;;;16.20;43.10
84356;BME280;74539;43.518;1.504;2024-02-26T00:20:54;98088.38;;;16.23;43.20
84356;BME280;74539;43.518;1.504;2024-02-26T00:23:20;98088.69;;;16.21;43.05
84356;BME280;74539;43.518;1.504;2024-02-26T00:25:45;98070.94;;;16.20;43.23
84356;BME280;74539;43.518;1.504;2024-02-26T00:28:11;98064.91;;;16.23;43.12
84356;BME280;74539;43.518;1.504;2024-02-26T00:30:38;98067.47;;;16.20;42.41
84356;BME280;74539;43.518;1.504;2024-02-26T00:33:04;98064.78;;;16.20;42.33
84356;BME280;74539;43.518;1.504;2024-02-26T00:35:30;98042.31;;;16.16;43.03
84356;BME280;74539;43.518;1.504;2024-02-26T00:37:55;98048.94;;;16.18;42.95
84356;BME280;74539;43.518;1.504;2024-02-26T00:40:21;98044.66;;;16.17;43.23
84356;BME280;74539;43.518;1.504;2024-02-26T00:42:46;98041.97;;;16.17;42.60
84356;BME280;74539;43.518;1.504;2024-02-26T00:45:13;98038.63;;;16.20;42.99
84356;BME280;74539;43.518;1.504;2024-02-26T00:47:39;98035.47;;;16.18;42.99
84356;BME280;74539;43.518;1.504;2024-02-26T00:50:07;98023.78;;;16.14;43.31
84356;BME280;74539;43.518;1.504;2024-02-26T00:52:34;98034.25;;;16.16;43.49
84356;BME280;74539;43.518;1.504;2024-02-26T00:55:00;98034.38;;;16.19;42.88
84356;BME280;74539;43.518;1.504;2024-02-26T00:57:25;98010.31;;;16.14;43.41
84356;BME280;74539;43.518;1.504;2024-02-26T00:59:51;98007.44;;;16.19;43.83
84356;BME280;74539;43.518;1.504;2024-02-26T01:02:17;98012.22;;;16.14;43.15
84356;BME280;74539;43.518;1.504;2024-02-26T01:04:42;98030.06;;;16.18;43.00
84356;BME280;74539;43.518;1.504;2024-02-26T01:07:08;98033.91;;;16.17;43.09
84356;BME280;74539;43.518;1.504;2024-02-26T01:09:34;98028.84;;;16.16;42.68
84356;BME280;74539;43.518;1.504;2024-02-26T01:11:59;98033.00;;;16.13;43.25
84356;BME280;74539;43.518;1.504;2024-02-26T01:14:25;98030.19;;;16.10;42.76
84356;BME280;74539;43.518;1.504;2024-02-26T01:16:51;98035.81;;;16.17;43.13
84356;BME280;74539;43.518;1.504;2024-02-26T01:19:16;98045.34;;;16.14;43.43
84356;BME280;74539;43.518;1.504;2024-02-26T01:21:42;98029.63;;;16.16;43.29
84356;BME280;74539;43.518;1.504;2024-02-26T01:24:07;98019.06;;;16.11;43.14
84356;BME280;74539;43.518;1.504;2024-02-26T01:26:33;98027.25;;;16.15;43.26
84356;BME280;74539;43.518;1.504;2024-02-26T01:28:58;98020.78;;;16.16;43.60
84356;BME280;74539;43.518;1.504;2024-02-26T01:31:24;98012.53;;;16.12;43.59
84356;BME280;74539;43.518;1.504;2024-02-26T01:33:49;98013.00;;;16.14;42.61
84356;BME280;74539;43.518;1.504;2024-02-26T01:36:15;98007.50;;;16.11;42.41
84356;BME280;74539;43.518;1.504;2024-02-26T01:38:40;98006.06;;;16.13;43.83
84356;BME280;74539;43.518;1.504;2024-02-26T01:41:06;98005.59;;;16.11;43.28
84356;BME280;74539;43.518;1.504;2024-02-26T01:43:32;98006.84;;;16.14;43.42
84356;BME280;74539;43.518;1.504;2024-02-26T01:45:58;98004.47;;;16.12;42.94
84356;BME280;74539;43.518;1.504;2024-02-26T01:48:24;98003.56;;;16.08;42.60
84356;BME280;74539;43.518;1.504;2024-02-26T01:50:51;98007.16;;;16.12;42.81
84356;BME280;74539;43.518;1.504;2024-02-26T01:53:17;98002.91;;;16.11;43.78
84356;BME280;74539;43.518;1.504;2024-02-26T01:55:44;97998.97;;;16.09;42.53
84356;BME280;74539;43.518;1.504;2024-02-26T01:58:10;98004.81;;;16.11;43.67
84356;BME280;74539;43.518;1.504;2024-02-26T02:00:39;98001.34;;;16.10;43.00
84356;BME280;74539;43.518;1.504;2024-02-26T02:03:04;97998.16;;;16.08;42.95
84356;BME280;74539;43.518;1.504;2024-02-26T02:05:31;97998.28;;;16.12;42.85
84356;BME280;74539;43.518;1.504;2024-02-26T02:07:57;97995.16;;;16.10;43.13
84356;BME280;74539;43.518;1.504;2024-02-26T02:10:23;97998.16;;;16.08;43.17
84356;BME280;74539;43.518;1.504;2024-02-26T02:12:51;97995.94;;;16.10;43.11
84356;BME280;74539;43.518;1.504;2024-02-26T02:15:17;97977.28;;;16.05;43.41
84356;BME280;74539;43.518;1.504;2024-02-26T02:17:43;97985.03;;;16.07;43.12
84356;BME280;74539;43.518;1.504;2024-02-26T02:20:10;97986.16;;;16.06;43.17
84356;BME280;74539;43.518;1.504;2024-02-26T02:22:40;97978.63;;;15.99;42.97
84356;BME280;74539;43.518;1.504;2024-02-26T02:25:06;97986.94;;;16.06;43.34
84356;BME280;74539;43.518;1.504;2024-02-26T02:27:31;97981.09;;;16.04;43.17
84356;BME280;74539;43.518;1.504;2024-02-26T02:29:57;97980.44;;;16.07;42.72
84356;BME280;74539;43.518;1.504;2024-02-26T02:32:24;97990.41;;;16.07;43.30
84356;BME280;74539;43.518;1.504;2024-02-26T02:34:50;97983.53;;;15.97;42.93
84356;BME280;74539;43.518;1.504;2024-02-26T02:37:16;97964.69;;;15.97;44.00
84356;BME280;74539;43.518;1.504;2024-02-26T02:39:41;97948.88;;;15.95;43.22
84356;BME280;74539;43.518;1.504;2024-02-26T02:42:08;97955.16;;;15.99;43.39
84356;BME280;74539;43.518;1.504;2024-02-26T02:44:34;97955.63;;;16.01;42.62
84356;BME280;74539;43.518;1.504;2024-02-26T02:47:00;97961.78;;;16.02;42.81
84356;BME280;74539;43.518;1.504;2024-02-26T02:49:25;97959.56;;;16.04;43.52
84356;BME280;74539;43.518;1.504;2024-02-26T02:51:51;97970.34;;;16.04;42.75
84356;BME280;74539;43.518;1.504;2024-02-26T02:54:19;97964.03;;;16.00;43.44
84356;BME280;74539;43.518;1.504;2024-02-26T02:56:45;97968.63;;;15.99;43.73
84356;BME280;74539;43.518;1.504;2024-02-26T02:59:10;97964.03;;;16.00;43.61
84356;BME280;74539;43.518;1.504;2024-02-26T03:01:36;97958.63;;;16.00;43.39
84356;BME280;74539;43.518;1.504;2024-02-26T03:04:01;97961.00;;;16.01;43.45
84356;BME280;74539;43.518;1.504;2024-02-26T03:06:27;97958.63;;;16.00;43.20
84356;BME280;74539;43.518;1.504;2024-02-26T03:08:54;97975.56;;;16.00;43.11
84356;BME280;74539;43.518;1.504;2024-02-26T03:11:20;97976.38;;;16.01;43.21
84356;BME280;74539;43.518;1.504;2024-02-26T03:13:46;97955.50;;;15.98;43.52
84356;BME280;74539;43.518;1.504;2024-02-26T03:16:11;97969.41;;;16.00;43.43
84356;BME280;74539;43.518;1.504;2024-02-26T03:18:40;97967.50;;;16.00;43.39
84356;BME280;74539;43.518;1.504;2024-02-26T03:21:06;97954.56;;;15.94;43.20
84356;BME280;74539;43.518;1.504;2024-02-26T03:23:32;97957.72;;;15.96;42.63
84356;BME280;74539;43.518;1.504;2024-02-26T03:26:02;97954.69;;;15.97;43.04
84356;BME280;74539;43.518;1.504;2024-02-26T03:28:29;97954.69;;;15.97;44.24
84356;BME280;74539;43.518;1.504;2024-02-26T03:30:54;97949.19;;;15.94;43.81
84356;BME280;74539;43.518;1.504;2024-02-26T03:33:20;97960.44;;;15.96;42.81
84356;BME280;74539;43.518;1.504;2024-02-26T03:35:45;97955.91;;;15.88;43.22
84356;BME280;74539;43.518;1.504;2024-02-26T03:38:11;97972.31;;;15.95;43.64
84356;BME280;74539;43.518;1.504;2024-02-26T03:40:36;97963.00;;;15.92;43.11
84356;BME280;74539;43.518;1.504;2024-02-26T03:43:02;97970.72;;;15.94;42.71
84356;BME280;74539;43.518;1.504;2024-02-26T03:45:30;97967.72;;;15.95;43.05
84356;BME280;74539;43.518;1.504;2024-02-26T03:47:55;97955.69;;;15.93;43.57
84356;BME280;74539;43.518;1.504;2024-02-26T03:50:21;97953.00;;;15.93;42.73
84356;BME280;74539;43.518;1.504;2024-02-26T03:52:46;97943.38;;;15.92;43.44
84356;BME280;74539;43.518;1.504;2024-02-26T03:55:12;97936.50;;;15.94;43.34
84356;BME280;74539;43.518;1.504;2024-02-26T03:57:37;97954.56;;;15.94;43.58
84356;BME280;74539;43.518;1.504;2024-02-26T04:00:03;97958.41;;;15.93;43.86
84356;BME280;74539;43.518;1.504;2024-02-26T04:02:29;97942.91;;;15.90;43.53
84356;BME280;74539;43.518;1.504;2024-02-26T04:04:54;97953.69;;;15.90;42.93
84356;BME280;74539;43.518;1.504;2024-02-26T04:07:20;97966.78;;;15.91;42.84
84356;BME280;74539;43.518;1.504;2024-02-26T04:09:45;97970.50;;;15.87;43.42
84356;BME280;74539;43.518;1.504;2024-02-26T04:12:11;97977.56;;;15.91;43.47
84356;BME280;74539;43.518;1.504;2024-02-26T04:14:36;97965.22;;;15.90;42.47
84356;BME280;74539;43.518;1.504;2024-02-26T04:17:02;97961.28;;;15.88;44.03
84356;BME280;74539;43.518;1.504;2024-02-26T04:19:28;97944.81;;;15.89;43.32
84356;BME280;74539;43.518;1.504;2024-02-26T04:21:54;97964.44;;;15.90;43.29
84356;BME280;74539;43.518;1.504;2024-02-26T04:24:20;97963.19;;;15.87;43.28
84356;BME280;74539;43.518;1.504;2024-02-26T04:26:45;97963.97;;;15.88;43.17
84356;BME280;74539;43.518;1.504;2024-02-26T04:29:11;97956.56;;;15.85;42.81
84356;BME280;74539;43.518;1.504;2024-02-26T04:31:37;97957.03;;;15.87;43.73
84356;BME280;74539;43.518;1.504;2024-02-26T04:34:03;97960.50;;;15.87;43.61
84356;BME280;74539;43.518;1.504;2024-02-26T04:36:28;97957.50;;;15.89;43.33
84356;BME280;74539;43.518;1.504;2024-02-26T04:38:54;97955.91;;;15.88;43.29
84356;BME280;74539;43.518;1.504;2024-02-26T04:41:21;97966.66;;;15.88;43.48
84356;BME280;74539;43.518;1.504;2024-02-26T04:43:46;97966.22;;;15.86;43.08
84356;BME280;74539;43.518;1.504;2024-02-26T04:46:12;97959.25;;;15.85;43.68
84356;BME280;74539;43.518;1.504;2024-02-26T04:48:38;97965.75;;;15.84;44.24
84356;BME280;74539;43.518;1.504;2024-02-26T04:51:04;97973.19;;;15.87;44.08
84356;BME280;74539;43.518;1.504;2024-02-26T04:53:29;97961.03;;;15.80;43.42
84356;BME280;74539;43.518;1.504;2024-02-26T04:55:55;97966.56;;;15.84;43.30
84356;BME280;74539;43.518;1.504;2024-02-26T04:58:21;97979.22;;;15.84;42.93
84356;BME280;74539;43.518;1.504;2024-02-26T05:00:46;97966.91;;;15.83;43.99
84356;BME280;74539;43.518;1.504;2024-02-26T05:03:12;97975.41;;;15.85;43.13
84356;BME280;74539;43.518;1.504;2024-02-26T05:05:42;97978.09;;;15.85;43.50
84356;BME280;74539;43.518;1.504;2024-02-26T05:08:08;97977.44;;;15.88;43.66
84356;BME280;74539;43.518;1.504;2024-02-26T05:10:34;97975.69;;;15.92;43.18
84356;BME280;74539;43.518;1.504;2024-02-26T05:13:00;97973.44;;;15.94;43.53
84356;BME280;74539;43.518;1.504;2024-02-26T05:15:25;97981.78;;;16.01;42.80
84356;BME280;74539;43.518;1.504;2024-02-26T05:17:51;97974.59;;;16.05;42.85
84356;BME280;74539;43.518;1.504;2024-02-26T05:20:18;97965.19;;;16.11;42.77
84356;BME280;74539;43.518;1.504;2024-02-26T05:22:43;97973.28;;;16.11;43.31
84356;BME280;74539;43.518;1.504;2024-02-26T05:25:09;97966.22;;;16.19;42.89
84356;BME280;74539;43.518;1.504;2024-02-26T05:27:35;97975.31;;;16.26;43.65
84356;BME280;74539;43.518;1.504;2024-02-26T05:30:00;97972.88;;;16.34;42.89
84356;BME280;74539;43.518;1.504;2024-02-26T05:32:26;97972.66;;;16.39;43.67
84356;BME280;74539;43.518;1.504;2024-02-26T05:34:51;97963.25;;;16.45;43.44
84356;BME280;74539;43.518;1.504;2024-02-26T05:37:17;97964.16;;;16.49;42.93
84356;BME280;74539;43.518;1.504;2024-02-26T05:39:43;97965.94;;;16.57;43.52
84356;BME280;74539;43.518;1.504;2024-02-26T05:42:09;97964.59;;;16.63;44.02
84356;BME280;74539;43.518;1.504;2024-02-26T05:44:35;97965.97;;;16.69;43.08
84356;BME280;74539;43.518;1.504;2024-02-26T05:47:00;97976.66;;;16.78;43.60
84356;BME280;74539;43.518;1.504;2024-02-26T05:49:26;97967.59;;;16.83;43.07
84356;BME280;74539;43.518;1.504;2024-02-26T05:51:51;97979.38;;;16.90;43.57
84356;BME280;74539;43.518;1.504;2024-02-26T05:54:17;97981.84;;;16.96;43.69
84356;BME280;74539;43.518;1.504;2024-02-26T05:56:42;97986.22;;;17.00;43.38
84356;BME280;74539;43.518;1.504;2024-02-26T05:59:08;97975.09;;;17.02;44.20
84356;BME280;74539;43.518;1.504;2024-02-26T06:01:33;97986.09;;;17.09;44.03
84356;BME280;74539;43.518;1.504;2024-02-26T06:03:59;97972.28;;;17.10;43.00
84356;BME280;74539;43.518;1.504;2024-02-26T06:06:25;97985.09;;;17.26;43.93
84356;BME280;74539;43.518;1.504;2024-02-26T06:08:50;97972.81;;;17.28;44.59
84356;BME280;74539;43.518;1.504;2024-02-26T06:11:16;97982.38;;;17.38;44.28
84356;BME280;74539;43.518;1.504;2024-02-26T06:13:41;97980.22;;;17.44;44.57
84356;BME280;74539;43.518;1.504;2024-02-26T06:16:08;97977.63;;;17.47;43.73
84356;BME280;74539;43.518;1.504;2024-02-26T06:18:33;97989.06;;;17.56;43.63
84356;BME280;74539;43.518;1.504;2024-02-26T06:20:59;97986.47;;;17.60;44.50
84356;BME280;74539;43.518;1.504;2024-02-26T06:23:25;97998.69;;;17.70;44.76
84356;BME280;74539;43.518;1.504;2024-02-26T06:25:51;97994.22;;;17.74;44.67
84356;BME280;74539;43.518;1.504;2024-02-26T06:28:17;97988.13;;;17.77;45.07
84356;BME280;74539;43.518;1.504;2024-02-26T06:30:43;98007.69;;;17.86;44.08
84356;BME280;74539;43.518;1.504;2024-02-26T06:33:09;98016.34;;;17.92;44.93
84356;BME280;74539;43.518;1.504;2024-02-26T06:35:34;98012.16;;;17.94;44.45
84356;BME280;74539;43.518;1.504;2024-02-26T06:38:00;98012.28;;;17.98;43.22
84356;BME280;74539;43.518;1.504;2024-02-26T06:40:25;98020.56;;;18.05;44.57
84356;BME280;74539;43.518;1.504;2024-02-26T06:42:51;98023.81;;;18.11;44.29
84356;BME280;74539;43.518;1.504;2024-02-26T06:45:17;98035.59;;;18.18;43.85
84356;BME280;74539;43.518;1.504;2024-02-26T06:47:44;98047.41;;;18.26;43.77
84356;BME280;74539;43.518;1.504;2024-02-26T06:50:13;98044.47;;;18.31;43.50
84356;BME280;74539;43.518;1.504;2024-02-26T06:52:39;98053.88;;;18.37;43.81
84356;BME280;74539;43.518;1.504;2024-02-26T06:55:05;98059.03;;;18.42;43.96
84356;BME280;74539;43.518;1.504;2024-02-26T06:57:33;98057.63;;;18.48;43.45
84356;BME280;74539;43.518;1.504;2024-02-26T06:59:59;98052.34;;;18.52;44.46
84356;BME280;74539;43.518;1.504;2024-02-26T07:02:24;98054.78;;;18.57;43.23
84356;BME280;74539;43.518;1.504;2024-02-26T07:04:50;98053.06;;;18.65;43.64
84356;BME280;74539;43.518;1.504;2024-02-26T07:07:15;98063.63;;;18.70;44.13
84356;BME280;74539;43.518;1.504;2024-02-26T07:09:43;98063.38;;;18.75;44.21
84356;BME280;74539;43.518;1.504;2024-02-26T07:12:09;98064.16;;;18.75;43.81
84356;BME280;74539;43.518;1.504;2024-02-26T07:14:34;98074.13;;;18.87;43.70
84356;BME280;74539;43.518;1.504;2024-02-26T07:17:00;98054.78;;;18.85;43.18
84356;BME280;74539;43.518;1.504;2024-02-26T07:19:26;98061.91;;;18.93;42.49
84356;BME280;74539;43.518;1.504;2024-02-26T07:21:51;98071.53;;;19.07;43.90
84356;BME280;74539;43.518;1.504;2024-02-26T07:24:17;98071.94;;;19.09;43.29
84356;BME280;74539;43.518;1.504;2024-02-26T07:26:42;98069.78;;;19.14;43.71
84356;BME280;74539;43.518;1.504;2024-02-26T07:29:08;98070.28;;;19.20;42.50
84356;BME280;74539;43.518;1.504;2024-02-26T07:31:33;98073.16;;;19.27;42.76
84356;BME280;74539;43.518;1.504;2024-02-26T07:33:59;98065.25;;;19.18;42.78
84356;BME280;74539;43.518;1.504;2024-02-26T07:36:24;98069.50;;;19.35;42.77
84356;BME280;74539;43.518;1.504;2024-02-26T07:38:50;98084.34;;;19.41;42.51
84356;BME280;74539;43.518;1.504;2024-02-26T07:41:17;98085.22;;;19.45;42.21
84356;BME280;74539;43.518;1.504;2024-02-26T07:43:43;98077.97;;;19.50;42.48
84356;BME280;74539;43.518;1.504;2024-02-26T07:46:11;98072.69;;;19.57;42.45
84356;BME280;74539;43.518;1.504;2024-02-26T07:48:37;98077.16;;;19.65;42.55
84356;BME280;74539;43.518;1.504;2024-02-26T07:51:02;98068.78;;;19.70;42.52
84356;BME280;74539;43.518;1.504;2024-02-26T07:53:29;98068.41;;;19.72;42.38
84356;BME280;74539;43.518;1.504;2024-02-26T07:55:56;98076.69;;;19.79;42.00
84356;BME280;74539;43.518;1.504;2024-02-26T07:58:22;98085.31;;;19.84;41.73
84356;BME280;74539;43.518;1.504;2024-02-26T08:00:49;98093.97;;;19.90;41.81
84356;BME280;74539;43.518;1.504;2024-02-26T08:03:14;98100.34;;;19.98;42.19
84356;BME280;74539;43.518;1.504;2024-02-26T08:05:41;98101.25;;;20.05;41.81
84356;BME280;74539;43.518;1.504;2024-02-26T08:08:08;98085.06;;;20.09;41.68
84356;BME280;74539;43.518;1.504;2024-02-26T08:10:34;98087.50;;;20.14;41.70
84356;BME280;74539;43.518;1.504;2024-02-26T08:13:00;98079.78;;;20.16;41.94
84356;BME280;74539;43.518;1.504;2024-02-26T08:15:34;98074.09;;;20.21;41.54
84356;BME280;74539;43.518;1.504;2024-02-26T08:18:01;98068.44;;;20.30;41.92
84356;BME280;74539;43.518;1.504;2024-02-26T08:20:30;98063.09;;;20.33;41.79
84356;BME280;74539;43.518;1.504;2024-02-26T08:22:57;98069.44;;;20.41;41.37
84356;BME280;74539;43.518;1.504;2024-02-26T08:25:23;98067.94;;;20.44;41.09
84356;BME280;74539;43.518;1.504;2024-02-26T08:27:49;98064.13;;;20.48;41.36
84356;BME280;74539;43.518;1.504;2024-02-26T08:30:17;98061.94;;;20.54;41.54
84356;BME280;74539;43.518;1.504;2024-02-26T08:32:44;98064.38;;;20.59;41.19
84356;BME280;74539;43.518;1.504;2024-02-26T08:35:10;98078.50;;;20.68;41.33
84356;BME280;74539;43.518;1.504;2024-02-26T08:37:36;98078.19;;;20.73;41.18
84356;BME280;74539;43.518;1.504;2024-02-26T08:40:01;98082.13;;;20.76;41.39
84356;BME280;74539;43.518;1.504;2024-02-26T08:42:29;98078.75;;;20.83;41.16
84356;BME280;74539;43.518;1.504;2024-02-26T08:44:55;98093.53;;;20.85;40.98
84356;BME280;74539;43.518;1.504;2024-02-26T08:47:20;98096.72;;;20.91;41.65
84356;BME280;74539;43.518;1.504;2024-02-26T08:49:46;98091.00;;;20.96;41.34
84356;BME280;74539;43.518;1.504;2024-02-26T08:52:12;98095.75;;;21.02;40.34
84356;BME280;74539;43.518;1.504;2024-02-26T08:54:39;98087.25;;;21.04;41.06
84356;BME280;74539;43.518;1.504;2024-02-26T08:57:05;98081.53;;;21.09;40.93
84356;BME280;74539;43.518;1.504;2024-02-26T08:59:31;98102.19;;;21.17;40.30
84356;BME280;74539;43.518;1.504;2024-02-26T09:01:57;98093.34;;;21.20;40.21
84356;BME280;74539;43.518;1.504;2024-02-26T09:04:22;98101.63;;;21.27;40.45
84356;BME280;74539;43.518;1.504;2024-02-26T09:06:48;98082.59;;;21.27;40.51
84356;BME280;74539;43.518;1.504;2024-02-26T09:09:14;98106.03;;;21.36;40.44
84356;BME280;74539;43.518;1.504;2024-02-26T09:11:40;98104.16;;;21.40;40.88
84356;BME280;74539;43.518;1.504;2024-02-26T09:14:05;98105.41;;;21.46;40.00
84356;BME280;74539;43.518;1.504;2024-02-26T09:16:31;98106.25;;;21.50;40.30
84356;BME280;74539;43.518;1.504;2024-02-26T09:18:57;98112.94;;;21.56;39.87
84356;BME280;74539;43.518;1.504;2024-02-26T09:21:22;98112.22;;;21.59;40.41
84356;BME280;74539;43.518;1.504;2024-02-26T09:23:50;98106.47;;;21.64;40.40
84356;BME280;74539;43.518;1.504;2024-02-26T09:26:16;98110.44;;;21.70;39.57
84356;BME280;74539;43.518;1.504;2024-02-26T09:28:42;98108.94;;;21.73;40.62
84356;BME280;74539;43.518;1.504;2024-02-26T09:31:08;98103.53;;;21.77;40.26
84356;BME280;74539;43.518;1.504;2024-02-26T09:33:34;98104.38;;;21.81;39.60
84356;BME280;74539;43.518;1.504;2024-02-26T09:35:59;98112.94;;;21.83;39.89
84356;BME280;74539;43.518;1.504;2024-02-26T09:38:28;98099.34;;;21.83;39.99
84356;BME280;74539;43.518;1.504;2024-02-26T09:40:58;98111.06;;;21.87;40.46
84356;BME280;74539;43.518;1.504;2024-02-26T09:43:26;98092.50;;;21.92;40.09
84356;BME280;74539;43.518;1.504;2024-02-26T09:45:56;98101.94;;;22.02;40.18
84356;BME280;74539;43.518;1.504;2024-02-26T09:48:22;98105.50;;;22.06;40.18
84356;BME280;74539;43.518;1.504;2024-02-26T09:50:49;98088.44;;;22.09;39.16
84356;BME280;74539;43.518;1.504;2024-02-26T09:53:14;98089.69;;;22.15;39.87
84356;BME280;74539;43.518;1.504;2024-02-26T09:55:42;98088.97;;;22.18;39.55
84356;BME280;74539;43.518;1.504;2024-02-26T09:58:10;98080.44;;;22.20;39.48
84356;BME280;74539;43.518;1.504;2024-02-26T10:00:40;98075.38;;;22.18;39.39
84356;BME280;74539;43.518;1.504;2024-02-26T10:03:09;98093.75;;;22.29;39.08
84356;BME280;74539;43.518;1.504;2024-02-26T10:05:38;98085.63;;;22.32;39.05
84356;BME280;74539;43.518;1.504;2024-02-26T10:08:06;98092.28;;;22.38;39.35
84356;BME280;74539;43.518;1.504;2024-02-26T10:10:33;98088.06;;;22.41;38.91
84356;BME280;74539;43.518;1.504;2024-02-26T10:12:59;98097.09;;;22.49;38.67
84356;BME280;74539;43.518;1.504;2024-02-26T10:15:27;98087.41;;;22.51;39.21
84356;BME280;74539;43.518;1.504;2024-02-26T10:17:53;98082.34;;;22.53;39.20
84356;BME280;74539;43.518;1.504;2024-02-26T10:20:19;98089.03;;;22.59;38.33
84356;BME280;74539;43.518;1.504;2024-02-26T10:22:48;98075.81;;;22.58;38.42
84356;BME280;74539;43.518;1.504;2024-02-26T10:25:14;98075.09;;;22.64;38.41
84356;BME280;74539;43.518;1.504;2024-02-26T10:27:41;98071.22;;;22.66;38.47
84356;BME280;74539;43.518;1.504;2024-02-26T10:30:20;98060.25;;;22.58;39.08
84356;BME280;74539;43.518;1.504;2024-02-26T10:32:46;98073.59;;;22.71;38.63
84356;BME280;74539;43.518;1.504;2024-02-26T10:35:14;98074.78;;;22.73;39.11
84356;BME280;74539;43.518;1.504;2024-02-26T10:37:40;98090.41;;;22.80;38.88
84356;BME280;74539;43.518;1.504;2024-02-26T10:40:10;98078.75;;;22.79;39.11
84356;BME280;74539;43.518;1.504;2024-02-26T10:42:36;98080.78;;;22.90;38.73
84356;BME280;74539;43.518;1.504;2024-02-26T10:45:01;98076.53;;;22.92;38.92
84356;BME280;74539;43.518;1.504;2024-02-26T10:47:29;98073.78;;;22.92;38.46
84356;BME280;74539;43.518;1.504;2024-02-26T10:49:56;98074.28;;;22.98;38.50
84356;BME280;74539;43.518;1.504;2024-02-26T10:52:22;98064.16;;;22.98;38.24
84356;BME280;74539;43.518;1.504;2024-02-26T10:54:53;98069.25;;;23.03;37.79
84356;BME280;74539;43.518;1.504;2024-02-26T10:57:19;98069.28;;;23.07;38.12
84356;BME280;74539;43.518;1.504;2024-02-26T10:59:47;98069.72;;;23.13;38.40
84356;BME280;74539;43.518;1.504;2024-02-26T11:02:13;98077.13;;;23.12;38.30
84356;BME280;74539;43.518;1.504;2024-02-26T11:04:39;98085.72;;;23.18;37.85
84356;BME280;74539;43.518;1.504;2024-02-26T11:07:05;98095.03;;;23.17;37.74
84356;BME280;74539;43.518;1.504;2024-02-26T11:09:33;98084.97;;;23.21;37.28
84356;BME280;74539;43.518;1.504;2024-02-26T11:12:01;98084.94;;;23.17;37.27
84356;BME280;74539;43.518;1.504;2024-02-26T11:14:29;98083.38;;;23.16;36.80
84356;BME280;74539;43.518;1.504;2024-02-26T11:16:56;98070.94;;;23.19;37.19
84356;BME280;74539;43.518;1.504;2024-02-26T11:19:24;98073.28;;;23.20;36.99
84356;BME280;74539;43.518;1.504;2024-02-26T11:21:50;98072.91;;;23.22;37.45
84356;BME280;74539;43.518;1.504;2024-02-26T11:24:16;98064.75;;;23.22;36.70
84356;BME280;74539;43.518;1.504;2024-02-26T11:26:58;98080.38;;;23.32;36.63
84356;BME280;74539;43.518;1.504;2024-02-26T11:29:34;98077.66;;;23.32;36.32
84356;BME280;74539;43.518;1.504;2024-02-26T11:32:03;98073.78;;;23.33;36.78
84356;BME280;74539;43.518;1.504;2024-02-26T11:34:28;98092.06;;;23.32;37.11
84356;BME280;74539;43.518;1.504;2024-02-26T11:36:55;98065.19;;;23.31;36.77
84356;BME280;74539;43.518;1.504;2024-02-26T11:39:23;98071.81;;;23.30;36.68
84356;BME280;74539;43.518;1.504;2024-02-26T11:41:50;98066.31;;;23.26;36.43
84356;BME280;74539;43.518;1.504;2024-02-26T11:44:29;98062.81;;;23.26;35.82
84356;BME280;74539;43.518;1.504;2024-02-26T11:46:56;98051.53;;;23.24;36.33
84356;BME280;74539;43.518;1.504;2024-02-26T11:51:57;98036.66;;;23.18;36.35
84356;BME280;74539;43.518;1.504;2024-02-26T11:54:39;98044.50;;;23.23;36.39
84356;BME280;74539;43.518;1.504;2024-02-26T11:59:56;98038.28;;;23.22;36.24
84356;BME280;74539;43.518;1.504;2024-02-26T12:07:39;98010.22;;;23.18;36.37
84356;BME280;74539;43.518;1.504;2024-02-26T12:13:00;97998.56;;;23.21;36.14
84356;BME280;74539;43.518;1.504;2024-02-26T12:15:33;97983.75;;;23.19;36.31
84356;BME280;74539;43.518;1.504;2024-02-26T12:18:03;97972.88;;;23.19;37.10
84356;BME280;74539;43.518;1.504;2024-02-26T12:20:29;97982.22;;;23.21;36.36
84356;BME280;74539;43.518;1.504;2024-02-26T12:22:56;97979.09;;;23.19;36.67
84356;BME280;74539;43.518;1.504;2024-02-26T12:25:24;97975.25;;;23.24;36.66
84356;BME280;74539;43.518;1.504;2024-02-26T12:27:51;97962.75;;;23.23;36.61
84356;BME280;74539;43.518;1.504;2024-02-26T12:30:19;97965.47;;;23.19;36.74
84356;BME280;74539;43.518;1.504;2024-02-26T12:32:46;97965.88;;;23.21;36.94
84356;BME280;74539;43.518;1.504;2024-02-26T12:35:13;97955.00;;;23.25;36.85
84356;BME280;74539;43.518;1.504;2024-02-26T12:37:39;97961.63;;;23.24;37.25
84356;BME280;74539;43.518;1.504;2024-02-26T12:40:06;97963.19;;;23.25;36.81
84356;BME280;74539;43.518;1.504;2024-02-26T12:42:37;97940.19;;;23.19;36.92
84356;BME280;74539;43.518;1.504;2024-02-26T12:45:10;97936.28;;;23.23;37.44
84356;BME280;74539;43.518;1.504;2024-02-26T12:47:40;97962.00;;;23.26;37.07
84356;BME280;74539;43.518;1.504;2024-02-26T12:50:07;97938.66;;;23.25;37.13
84356;BME280;74539;43.518;1.504;2024-02-26T12:52:34;97940.22;;;23.26;37.82
84356;BME280;74539;43.518;1.504;2024-02-26T12:55:04;97941.78;;;23.27;37.43
84356;BME280;74539;43.518;1.504;2024-02-26T12:57:31;97937.88;;;23.28;37.39
84356;BME280;74539;43.518;1.504;2024-02-26T12:59:59;97939.44;;;23.29;37.64
84356;BME280;74539;43.518;1.504;2024-02-26T13:02:26;97941.78;;;23.27;37.76
84356;BME280;74539;43.518;1.504;2024-02-26T13:04:53;97930.91;;;23.27;36.91
84356;BME280;74539;43.518;1.504;2024-02-26T13:07:20;97943.34;;;23.28;37.37
84356;BME280;74539;43.518;1.504;2024-02-26T13:09:46;97937.88;;;23.28;37.21